Time;durP1;ratioP1;P1;durP2;ratioP2;P2;SDS_P1;SDS_P2;PMS_P1;PMS_P2;Temp;Humidity;BMP_temperature;BMP_pressure;BME280_temperature;BME280_humidity;BME280_pressure;Samples;Min_cycle;Max_cycle;Signal;HPM_P1;HPM_P2
2022/09/24 00:00:51;;;;;;;1.63;1.52;;;;;;;7.36;71.83;96753.31;5095006;28;20048;-66
2022/09/24 00:03:19;;;;;;;1.67;1.58;;;;;;;7.30;72.07;96750.84;5094935;28;20448;-65
2022/09/24 00:05:47;;;;;;;2.63;1.70;;;;;;;7.25;72.07;96744.91;5095069;28;20044;-66
2022/09/24 00:08:16;;;;;;;1.88;1.77;;;;;;;7.20;71.87;96743.22;5094894;28;20551;-66
2022/09/24 00:10:45;;;;;;;3.28;2.22;;;;;;;7.15;71.84;96739.88;5094884;28;20123;-66
2022/09/24 00:13:15;;;;;;;2.03;1.73;;;;;;;7.08;71.94;96741.75;5094941;28;20048;-68
2022/09/24 00:15:44;;;;;;;2.17;1.98;;;;;;;6.98;72.35;96734.19;5094592;28;20083;-67
2022/09/24 00:18:12;;;;;;;1.83;1.70;;;;;;;6.90;72.99;96736.94;5094679;28;20048;-66
2022/09/24 00:20:40;;;;;;;2.30;1.83;;;;;;;6.89;72.80;96730.03;5094446;28;20056;-65
2022/09/24 00:23:08;;;;;;;2.33;1.90;;;;;;;6.86;72.57;96730.09;5094234;28;20051;-67
2022/09/24 00:28:27;;;;;;;2.47;1.60;;;;;;;6.69;73.77;96734.72;5094855;28;20074;-67
2022/09/24 00:30:56;;;;;;;2.05;1.95;;;;;;;6.69;73.19;96726.06;5094608;28;20117;-66
2022/09/24 00:33:23;;;;;;;8.38;2.58;;;;;;;6.66;73.36;96727.00;5094669;28;20482;-66
2022/09/24 00:35:51;;;;;;;2.10;1.90;;;;;;;6.61;73.42;96731.41;5094833;28;20105;-66
2022/09/24 00:38:18;;;;;;;1.85;1.70;;;;;;;6.61;73.11;96727.94;5094476;28;20044;-67
2022/09/24 00:40:46;;;;;;;1.92;1.73;;;;;;;6.56;73.23;96730.63;5094286;28;20052;-67
2022/09/24 00:43:25;;;;;;;2.35;1.85;;;;;;;6.53;73.03;96728.97;5094569;28;20048;-65
2022/09/24 00:45:56;;;;;;;2.83;2.28;;;;;;;6.51;73.49;96729.88;5094397;28;20044;-66
2022/09/24 00:48:24;;;;;;;2.15;1.92;;;;;;;6.51;73.43;96720.34;5094208;28;20076;-67
2022/09/24 00:50:51;;;;;;;3.20;1.98;;;;;;;6.48;73.61;96720.41;5094385;28;20048;-64
2022/09/24 00:53:22;;;;;;;2.72;2.20;;;;;;;6.41;74.10;96727.44;5094170;28;20071;-66
2022/09/24 00:55:54;;;;;;;3.55;2.60;;;;;;;6.34;74.99;96719.78;5094007;28;20048;-65
2022/09/24 00:58:23;;;;;;;2.38;2.17;;;;;;;6.35;74.63;96714.56;5093951;28;20040;-68
2022/09/24 01:00:56;;;;;;;2.13;1.90;;;;;;;6.34;74.80;96715.44;5093925;28;20052;-66
2022/09/24 01:03:25;;;;;;;2.40;2.20;;;;;;;6.33;74.50;96718.94;5094138;28;20044;-67
2022/09/24 01:05:52;;;;;;;2.90;2.05;;;;;;;6.30;74.75;96713.81;5093822;28;20490;-67
2022/09/24 01:08:21;;;;;;;2.47;2.28;;;;;;;6.31;74.53;96713.78;5093905;28;20075;-67
2022/09/24 01:11:03;;;;;;;2.88;2.60;;;;;;;6.24;74.60;96725.16;5093695;28;20131;-67
2022/09/24 01:13:43;;;;;;;4.35;2.45;;;;;;;6.23;75.11;96714.78;5093939;28;20559;-68
2022/09/24 01:16:23;;;;;;;3.13;2.20;;;;;;;6.23;73.97;96713.03;5093798;28;20044;-67
2022/09/24 01:18:56;;;;;;;5.90;3.03;;;;;;;6.19;74.29;96711.38;5093750;28;20084;-66
2022/09/24 01:21:36;;;;;;;11.50;3.38;;;;;;;6.17;74.09;96713.16;5093496;28;20138;-68
2022/09/24 01:24:40;;;;;;;4.15;2.85;;;;;;;6.09;74.62;96709.84;5093730;28;20075;-67
2022/09/24 01:27:14;;;;;;;10.13;2.80;;;;;;;6.03;74.84;96711.63;5091536;28;20080;-66
2022/09/24 01:30:01;;;;;;;2.85;2.60;;;;;;;5.86;74.86;96711.91;5093757;28;20077;-67
2022/09/24 01:32:36;;;;;;;3.53;3.05;;;;;;;5.84;74.91;96711.06;5093751;28;20090;-68
2022/09/24 01:35:09;;;;;;;3.03;2.60;;;;;;;5.83;75.24;96714.56;5093357;28;20044;-67
2022/09/24 01:37:40;;;;;;;6.55;2.58;;;;;;;5.87;74.56;96721.41;5093402;28;20132;-66
2022/09/24 01:40:10;;;;;;;;;;;;;;;5.84;74.44;96721.44;5093830;28;20044;-66
2022/09/24 01:42:39;;;;;;;2.45;2.25;;;;;;;5.79;74.31;96721.56;5093617;28;19994;-66
2022/09/24 01:45:11;;;;;;;2.23;1.70;;;;;;;5.73;74.33;96726.84;5093628;28;20048;-67
2022/09/24 01:47:41;;;;;;;2.30;2.10;;;;;;;5.68;74.67;96726.03;5093367;28;20129;-68
2022/09/24 01:50:11;;;;;;;2.63;2.28;;;;;;;5.68;75.19;96723.44;5093389;28;20402;-67
2022/09/24 01:52:43;;;;;;;2.85;2.42;;;;;;;5.62;74.95;96720.94;5093288;28;20136;-65
2022/09/24 01:55:14;;;;;;;6.20;2.50;;;;;;;5.54;75.13;96721.06;5093245;28;20055;-66
2022/09/24 01:57:46;;;;;;;3.55;3.25;;;;;;;5.43;75.69;96729.00;5093174;28;20379;-68
2022/09/24 02:00:18;;;;;;;5.22;2.38;;;;;;;5.43;75.45;96736.78;5092996;28;20456;-66
2022/09/24 02:02:49;;;;;;;2.90;2.42;;;;;;;5.41;75.59;96725.56;5093170;28;20547;-67
2022/09/24 02:05:22;;;;;;;3.70;2.15;;;;;;;5.31;75.42;96725.72;5093149;28;20057;-65
2022/09/24 02:07:57;;;;;;;2.70;2.50;;;;;;;5.25;76.07;96732.72;5093063;28;20054;-66
2022/09/24 02:10:26;;;;;;;2.90;2.60;;;;;;;5.18;75.88;96727.59;5092996;28;20044;-68
2022/09/24 02:13:00;;;;;;;2.47;2.10;;;;;;;5.16;76.00;96737.16;5093039;28;20506;-67
2022/09/24 02:15:34;;;;;;;2.83;2.33;;;;;;;5.14;75.94;96738.91;5092975;28;20581;-66
2022/09/24 02:18:05;;;;;;;2.22;2.03;;;;;;;5.09;76.05;96732.06;5093335;28;20044;-65
2022/09/24 02:20:36;;;;;;;2.50;2.25;;;;;;;5.05;75.91;96737.28;5092785;28;20044;-66
2022/09/24 02:23:05;;;;;;;6.57;2.30;;;;;;;5.02;75.71;96741.63;5092936;28;20101;-68
2022/09/24 02:25:38;;;;;;;3.08;2.30;;;;;;;4.97;75.56;96738.25;5092820;28;20437;-68
2022/09/24 02:28:05;;;;;;;4.22;2.50;;;;;;;4.94;76.02;96736.56;5092958;28;20082;-68
2022/09/24 02:30:41;;;;;;;3.90;2.50;;;;;;;4.89;76.28;96741.81;5093260;28;20075;-66
2022/09/24 02:34:19;;;;;;;2.65;2.45;;;;;;;4.73;76.98;96748.88;5093073;28;20048;-67
2022/09/24 02:35:57;;;;;;;2.40;2.20;;;;;;;4.71;76.61;96750.66;5092772;28;20052;-65
2022/09/24 02:38:24;;;;;;;2.78;2.58;;;;;;;4.69;76.94;96747.22;5092775;28;20040;-67
2022/09/24 02:40:52;;;;;;;2.75;2.33;;;;;;;4.67;76.86;96743.78;5092585;28;20048;-67
2022/09/24 02:43:19;;;;;;;2.20;2.00;;;;;;;4.69;77.29;96749.81;5092667;28;20478;-67
2022/09/24 02:45:48;;;;;;;2.78;2.20;;;;;;;4.71;77.39;96755.84;5095896;28;20102;-66
2022/09/24 02:48:15;;;;;;;2.92;2.22;;;;;;;4.76;77.23;96748.84;5096841;28;20085;-65
2022/09/24 02:50:42;;;;;;;2.45;2.25;;;;;;;4.73;76.88;96743.69;5096569;28;20044;-67
2022/09/24 02:53:09;;;;;;;2.92;2.45;;;;;;;4.74;76.83;96736.78;5096740;28;20465;-67
2022/09/24 02:55:36;;;;;;;2.60;2.25;;;;;;;4.70;76.44;96743.75;5096364;28;20048;-65
2022/09/24 02:58:03;;;;;;;3.28;2.47;;;;;;;4.66;76.82;96745.53;5096258;28;20080;-67
2022/09/24 03:00:31;;;;;;;2.42;2.22;;;;;;;4.62;76.76;96746.44;5096273;28;20056;-66
2022/09/24 03:02:59;;;;;;;4.80;1.90;;;;;;;4.62;76.70;96749.03;5096310;28;20123;-67
2022/09/24 03:05:26;;;;;;;2.72;2.30;;;;;;;4.60;77.74;96749.94;5096262;28;20082;-65
2022/09/24 03:07:55;;;;;;;3.13;2.40;;;;;;;4.55;77.17;96753.41;5096065;28;20113;-65
2022/09/24 03:10:23;;;;;;;2.83;2.28;;;;;;;4.58;77.48;96762.91;5096002;28;20379;-64
2022/09/24 03:12:50;;;;;;;3.13;2.17;;;;;;;4.58;77.66;96756.84;5095961;28;20079;-66
2022/09/24 03:15:17;;;;;;;2.78;2.42;;;;;;;4.53;77.34;96764.66;5095894;28;20098;-66
2022/09/24 03:17:44;;;;;;;2.78;2.47;;;;;;;4.51;77.54;96762.09;5096026;28;20047;-65
2022/09/24 03:20:13;;;;;;;2.42;1.88;;;;;;;4.45;77.86;96762.16;5095966;28;20066;-67
2022/09/24 03:22:41;;;;;;;2.50;2.13;;;;;;;4.45;77.57;96761.31;5095653;28;20127;-64
2022/09/24 03:25:10;;;;;;;3.28;2.50;;;;;;;4.39;77.88;96763.06;5095871;28;20075;-67
2022/09/24 03:27:37;;;;;;;2.50;2.30;;;;;;;4.33;78.08;96765.72;5095761;28;20059;-65
2022/09/24 03:32:49;;;;;;;2.42;2.22;;;;;;;4.25;78.51;96772.72;5096024;28;20536;-65
2022/09/24 03:35:18;;;;;;;2.50;2.30;;;;;;;4.30;78.26;96779.56;5095653;28;20139;-68
2022/09/24 03:37:45;;;;;;;2.35;2.15;;;;;;;4.33;78.36;96778.66;5095539;28;20482;-68
2022/09/24 03:40:13;;;;;;;3.28;2.35;;;;;;;4.29;78.08;96776.97;5095964;28;20044;-64
2022/09/24 03:42:40;;;;;;;3.47;2.28;;;;;;;4.28;78.25;96770.94;5095295;28;20054;-67
2022/09/24 03:45:08;;;;;;;3.30;2.05;;;;;;;4.27;78.09;96774.41;5095484;28;20048;-66
2022/09/24 03:47:35;;;;;;;2.10;1.90;;;;;;;4.31;78.39;96775.25;5095383;28;20090;-68
2022/09/24 03:50:03;;;;;;;2.67;2.33;;;;;;;4.27;78.17;96777.00;5095394;28;20056;-66
2022/09/24 03:52:31;;;;;;;2.95;2.65;;;;;;;4.17;78.38;96781.41;5095277;28;20079;-65
2022/09/24 03:54:59;;;;;;;3.35;2.13;;;;;;;4.10;78.41;96784.94;5095145;28;20044;-65
2022/09/24 03:57:26;;;;;;;3.13;2.58;;;;;;;4.06;78.60;96782.38;5095118;28;20044;-65
2022/09/24 03:59:53;;;;;;;4.03;2.40;;;;;;;4.07;78.91;96784.94;5095241;28;20405;-67
2022/09/24 04:02:20;;;;;;;6.28;2.40;;;;;;;4.14;78.35;96799.56;5095109;28;20130;-65
2022/09/24 04:04:47;;;;;;;5.22;2.65;;;;;;;4.14;78.60;96790.91;5095107;28;20098;-68
2022/09/24 04:07:14;;;;;;;2.53;2.33;;;;;;;4.14;78.37;96793.50;5095092;28;20105;-66
2022/09/24 04:09:43;;;;;;;4.88;3.00;;;;;;;4.16;78.19;96807.31;5095083;28;20105;-66
2022/09/24 04:12:10;;;;;;;2.67;2.20;;;;;;;4.22;78.09;96804.69;5094889;28;20124;-67
2022/09/24 04:14:38;;;;;;;2.42;2.20;;;;;;;4.22;78.07;96809.88;5094677;28;20048;-68
2022/09/24 04:17:05;;;;;;;6.88;4.00;;;;;;;4.22;78.32;96812.44;5094800;28;20040;-64
2022/09/24 04:19:32;;;;;;;3.95;3.25;;;;;;;4.21;78.90;96818.47;5094606;28;20078;-65
2022/09/24 04:21:59;;;;;;;3.75;2.70;;;;;;;4.23;78.52;96815.88;5094675;28;20059;-67
2022/09/24 04:24:26;;;;;;;2.85;2.33;;;;;;;4.20;78.26;96819.34;5094784;28;20048;-67
2022/09/24 04:26:55;;;;;;;3.33;2.53;;;;;;;4.26;78.38;96819.31;5094881;28;20044;-65
2022/09/24 04:29:22;;;;;;;2.78;2.50;;;;;;;4.28;78.22;96820.16;5094472;28;20055;-66
2022/09/24 04:31:49;;;;;;;2.33;2.10;;;;;;;4.33;78.00;96827.03;5094534;28;20048;-66
2022/09/24 04:34:16;;;;;;;3.13;2.33;;;;;;;4.34;78.21;96829.63;5094465;28;20567;-67
2022/09/24 04:36:43;;;;;;;3.28;2.20;;;;;;;4.40;77.80;96833.88;5094488;28;20045;-65
2022/09/24 04:39:11;;;;;;;7.25;2.50;;;;;;;4.45;77.51;96833.84;5094486;28;20109;-67
2022/09/24 04:41:38;;;;;;;2.55;2.33;;;;;;;4.46;77.59;96836.44;5094324;28;20048;-66
2022/09/24 04:44:07;;;;;;;2.30;2.10;;;;;;;4.50;77.54;96839.81;5094190;28;20048;-65
2022/09/24 04:46:34;;;;;;;6.72;2.40;;;;;;;4.51;77.62;96846.72;5094284;28;20050;-67
2022/09/24 04:49:01;;;;;;;5.88;2.30;;;;;;;4.55;78.09;96845.84;5094175;28;20044;-65
2022/09/24 04:51:28;;;;;;;3.22;2.28;;;;;;;4.69;78.63;96837.91;5094269;28;20454;-66
2022/09/24 04:53:55;;;;;;;2.45;2.25;;;;;;;5.53;77.25;96837.00;5094178;28;20093;-65
2022/09/24 04:56:22;;;;;;;1.77;1.67;;;;;;;6.86;73.43;96836.72;5093996;28;20048;-67
2022/09/24 04:58:52;;;;;;;1.45;1.35;;;;;;;8.08;68.48;96837.69;5094059;28;20052;-65
2022/09/24 05:01:21;;;;;;;1.83;1.73;;;;;;;9.41;63.26;96835.19;5093962;28;20040;-67
2022/09/24 05:03:48;;;;;;;6.85;1.48;;;;;;;10.61;59.44;96836.78;5093917;28;20407;-66
2022/09/24 05:06:15;;;;;;;3.10;2.10;;;;;;;11.73;56.34;96838.97;5093924;28;20101;-67
2022/09/24 05:08:42;;;;;;;2.67;2.30;;;;;;;12.85;52.80;96831.06;5093403;28;20048;-68
2022/09/24 05:11:10;;;;;;;2.17;1.98;;;;;;;13.88;50.62;96834.50;5093766;28;20081;-67
2022/09/24 05:13:38;;;;;;;2.75;1.50;;;;;;;14.90;47.42;96836.63;5093863;28;20548;-68
2022/09/24 05:16:05;;;;;;;1.88;1.50;;;;;;;15.79;45.48;96834.66;5093595;28;20436;-68
2022/09/24 05:18:35;;;;;;;1.35;1.25;;;;;;;16.59;43.94;96829.44;5093768;28;20044;-67
2022/09/24 05:21:02;;;;;;;1.40;1.30;;;;;;;17.27;42.27;96838.66;5093627;28;20097;-68
2022/09/24 05:23:29;;;;;;;1.00;1.00;;;;;;;18.02;40.64;96831.44;5093629;28;20044;-67
2022/09/24 05:28:41;;;;;;;1.25;1.15;;;;;;;19.39;38.11;96829.59;5093653;28;20055;-67
2022/09/24 05:31:09;;;;;;;2.13;1.45;;;;;;;19.86;38.00;96826.38;5093625;28;20071;-67
2022/09/24 05:33:38;;;;;;;1.48;1.33;;;;;;;20.13;37.16;96822.72;5093492;28;20436;-67
2022/09/24 05:36:05;;;;;;;2.40;1.27;;;;;;;20.69;36.50;96829.28;5093379;28;20048;-67
2022/09/24 05:38:33;;;;;;;1.52;1.33;;;;;;;21.15;35.84;96837.41;5093481;28;20490;-67
2022/09/24 05:41:00;;;;;;;1.10;1.00;;;;;;;21.25;35.14;96842.84;5093530;28;20206;-67
2022/09/24 05:43:28;;;;;;;0.85;0.85;;;;;;;21.63;34.98;96830.22;5093395;28;20059;-67
2022/09/24 05:45:57;;;;;;;1.48;1.13;;;;;;;22.11;35.09;96843.38;5093288;28;20075;-67
2022/09/24 05:48:25;;;;;;;2.15;1.10;;;;;;;22.61;34.65;96837.59;5093416;28;20044;-66
2022/09/24 05:50:55;;;;;;;1.38;1.20;;;;;;;23.13;33.62;96841.34;5093309;28;20091;-67
2022/09/24 05:53:23;;;;;;;1.10;1.00;;;;;;;23.41;33.46;96845.19;5093198;28;20052;-67
2022/09/24 05:55:50;;;;;;;1.63;1.23;;;;;;;23.80;32.93;96841.88;5093221;28;20135;-67
2022/09/24 05:58:18;;;;;;;1.25;1.10;;;;;;;24.00;33.03;96849.09;5093279;28;20051;-67
2022/09/24 06:00:45;;;;;;;1.38;1.10;;;;;;;24.42;32.60;96851.66;5093206;28;20474;-66
2022/09/24 06:03:14;;;;;;;1.35;1.25;;;;;;;24.97;30.99;96846.75;5092936;28;20098;-67
2022/09/24 06:05:44;;;;;;;2.05;1.20;;;;;;;25.73;30.88;96852.25;5093127;28;20462;-66
2022/09/24 06:08:14;;;;;;;1.20;1.10;;;;;;;25.84;30.83;96856.59;5093032;28;20047;-67
2022/09/24 06:10:42;;;;;;;1.90;0.90;;;;;;;26.03;30.16;96855.66;5093151;28;20553;-66
2022/09/24 06:13:10;;;;;;;1.30;1.20;;;;;;;26.45;28.85;96853.47;5093339;28;20127;-66
2022/09/24 06:15:37;;;;;;;2.70;1.00;;;;;;;26.73;28.81;96854.25;5092977;28;20044;-66
2022/09/24 06:18:05;;;;;;;1.17;1.08;;;;;;;27.25;27.38;96857.25;5093091;28;20048;-66
2022/09/24 06:20:33;;;;;;;1.63;1.20;;;;;;;27.48;27.12;96862.09;5095370;28;20074;-66
2022/09/24 06:23:01;;;;;;;1.88;1.00;;;;;;;27.47;26.17;96860.41;5096965;28;20056;-66
2022/09/24 06:25:31;;;;;;;1.20;0.98;;;;;;;27.25;25.85;96859.91;5097015;28;20052;-66
2022/09/24 06:28:00;;;;;;;1.27;1.17;;;;;;;27.08;25.03;96857.09;5096831;28;20138;-66
2022/09/24 06:30:28;;;;;;;1.00;0.90;;;;;;;27.32;26.14;96860.97;5097220;28;20047;-66
2022/09/24 06:33:01;;;;;;;1.50;1.30;;;;;;;27.32;26.30;96862.81;5096952;28;20052;-66
2022/09/24 06:35:28;;;;;;;1.13;1.02;;;;;;;27.30;26.16;96865.66;5096850;28;20447;-66
2022/09/24 06:37:55;;;;;;;2.38;1.00;;;;;;;27.02;26.57;96854.22;5095558;28;20083;-66
2022/09/24 06:40:24;;;;;;;1.30;1.20;;;;;;;26.90;28.26;96854.41;5096818;28;20040;-66
2022/09/24 06:42:56;;;;;;;1.20;1.10;;;;;;;26.61;26.86;96860.84;5096618;28;20054;-66
2022/09/24 06:45:24;;;;;;;1.40;1.10;;;;;;;26.32;26.94;96860.06;5096663;28;20050;-66
2022/09/24 06:47:54;;;;;;;1.13;1.02;;;;;;;25.92;27.61;96855.84;5096537;28;20401;-68
2022/09/24 06:50:22;;;;;;;1.30;1.20;;;;;;;25.84;27.88;96867.31;5096530;28;20048;-66
2022/09/24 06:52:49;;;;;;;1.33;1.23;;;;;;;25.28;28.89;96867.16;5096566;28;20444;-66
2022/09/24 06:55:18;;;;;;;1.25;1.15;;;;;;;24.99;29.76;96864.34;5096687;28;20486;-66
2022/09/24 06:57:45;;;;;;;1.00;1.00;;;;;;;24.92;29.69;96862.41;5096384;28;20547;-66
2022/09/24 07:00:15;;;;;;;1.50;1.20;;;;;;;24.76;28.91;96866.44;5096660;28;20417;-66
2022/09/24 07:02:43;;;;;;;1.15;0.98;;;;;;;24.54;30.97;96864.88;5096262;28;20058;-66
2022/09/24 07:05:10;;;;;;;4.18;1.33;;;;;;;24.39;30.45;96872.44;5096338;28;20044;-66
2022/09/24 07:07:38;;;;;;;1.55;1.15;;;;;;;24.51;30.46;96873.16;5096244;28;20044;-66
2022/09/24 07:10:07;;;;;;;2.20;1.25;;;;;;;24.54;31.36;96875.56;5095921;28;20051;-66
2022/09/24 07:12:36;;;;;;;3.70;1.30;;;;;;;24.52;30.67;96866.84;5096123;28;20132;-67
2022/09/24 07:15:04;;;;;;;1.20;1.10;;;;;;;24.60;30.39;96872.34;5095921;28;20413;-66
2022/09/24 07:17:33;;;;;;;1.48;1.38;;;;;;;24.36;30.95;96873.56;5096117;28;20040;-67
2022/09/24 07:20:00;;;;;;;1.25;1.10;;;;;;;24.06;30.77;96875.28;5096140;28;20055;-67
2022/09/24 07:22:28;;;;;;;1.40;1.30;;;;;;;23.43;32.01;96883.28;5095861;28;20048;-66
2022/09/24 07:24:55;;;;;;;1.25;1.15;;;;;;;23.35;32.23;96880.38;5095844;28;20512;-67
2022/09/24 07:27:23;;;;;;;1.88;1.23;;;;;;;23.45;30.84;96872.50;5095819;28;20080;-66
2022/09/24 07:29:50;;;;;;;1.20;1.13;;;;;;;23.33;30.66;96874.34;5095978;28;20044;-66
2022/09/24 07:32:18;;;;;;;1.00;1.00;;;;;;;23.28;30.81;96874.75;5095610;28;20052;-66
2022/09/24 07:34:47;;;;;;;1.65;1.38;;;;;;;23.29;30.07;96875.56;5095652;28;20051;-66
2022/09/24 07:37:14;;;;;;;1.85;1.60;;;;;;;23.29;30.75;96881.75;5095731;28;20051;-66
2022/09/24 07:39:42;;;;;;;1.33;1.23;;;;;;;23.47;29.99;96881.19;5095906;28;20048;-66
2022/09/24 07:42:10;;;;;;;3.08;1.08;;;;;;;23.67;30.71;96875.97;5095559;28;20142;-66
2022/09/24 07:44:37;;;;;;;1.88;1.35;;;;;;;23.85;29.86;96882.38;5095415;28;20044;-66
2022/09/24 07:47:04;;;;;;;1.17;1.05;;;;;;;23.97;28.84;96872.47;5095512;28;20047;-66
2022/09/24 07:49:35;;;;;;;2.22;1.17;;;;;;;24.06;28.36;96875.28;5095453;28;20048;-67
2022/09/24 07:52:08;;;;;;;1.13;1.02;;;;;;;24.23;28.51;96879.19;5095454;28;20160;-67
2022/09/24 07:54:35;;;;;;;1.38;1.27;;;;;;;24.19;28.16;96865.22;5095322;28;20050;-67
2022/09/24 07:57:02;;;;;;;1.20;1.10;;;;;;;24.15;28.73;96871.84;5095320;28;20451;-67
2022/09/24 07:59:30;;;;;;;1.20;1.10;;;;;;;24.13;27.25;96870.22;5095253;28;20044;-66
2022/09/24 08:01:58;;;;;;;1.33;1.23;;;;;;;24.14;27.60;96871.97;5095202;28;20044;-66
2022/09/24 08:04:25;;;;;;;5.78;1.52;;;;;;;23.80;28.76;96868.56;5095015;28;20052;-66
2022/09/24 08:06:52;;;;;;;1.48;1.38;;;;;;;23.92;29.08;96876.50;5095152;28;20524;-66
2022/09/24 08:09:21;;;;;;;2.03;1.20;;;;;;;23.95;28.63;96874.41;5095206;28;20044;-66
2022/09/24 08:11:50;;;;;;;1.42;1.20;;;;;;;24.05;28.52;96869.09;5095003;28;20048;-67
2022/09/24 08:14:17;;;;;;;2.65;1.20;;;;;;;24.15;27.67;96870.97;5094940;28;20553;-66
2022/09/24 08:16:44;;;;;;;1.20;1.10;;;;;;;23.95;27.16;96870.88;5095095;28;20056;-67
2022/09/24 08:19:13;;;;;;;2.15;1.00;;;;;;;23.71;27.14;96877.38;5094956;28;20039;-66
2022/09/24 08:21:40;;;;;;;1.40;1.20;;;;;;;23.64;27.77;96868.22;5094911;28;20048;-66
2022/09/24 08:24:11;;;;;;;4.00;1.33;;;;;;;23.43;26.45;96869.94;5094667;28;20052;-66
2022/09/24 08:26:39;;;;;;;1.35;1.25;;;;;;;23.25;28.50;96874.13;5094748;28;20046;-66
2022/09/24 08:29:07;;;;;;;1.55;1.20;;;;;;;23.33;27.85;96861.00;5094824;28;20048;-66
2022/09/24 08:31:34;;;;;;;1.83;1.50;;;;;;;23.21;27.68;96869.06;5094546;28;20047;-67
2022/09/24 08:34:01;;;;;;;1.50;1.40;;;;;;;23.39;27.50;96867.66;5094763;28;20040;-66
2022/09/24 08:36:29;;;;;;;2.17;1.63;;;;;;;23.42;27.40;96867.41;5094633;28;20044;-66
2022/09/24 08:38:57;;;;;;;2.67;1.13;;;;;;;23.52;25.89;96864.78;5094645;28;20048;-66
2022/09/24 08:41:42;;;;;;;1.35;1.25;;;;;;;23.34;27.57;96866.22;5094400;28;20540;-66
2022/09/24 08:47:21;;;;;;;1.48;1.35;;;;;;;23.02;25.98;96860.94;5093748;28;20200;-66
2022/09/24 08:47:22;;;;;;;2.88;1.27;;;;;;;22.56;27.20;96859.28;5094461;28;20044;-66
2022/09/24 08:49:56;;;;;;;1.08;0.95;;;;;;;22.44;28.76;96850.47;5094333;28;20048;-66
2022/09/24 08:52:37;;;;;;;1.17;1.00;;;;;;;22.34;28.92;96850.34;5094290;28;20048;-66
2022/09/24 08:55:07;;;;;;;;;;;;;;;22.53;29.04;96856.84;5094688;28;20091;-66
2022/09/24 08:57:40;;;;;;;1.20;1.10;;;;;;;22.53;27.63;96848.88;5094185;28;19970;-66
2022/09/24 09:00:14;;;;;;;1.38;1.05;;;;;;;22.46;28.97;96845.00;5094079;28;20044;-66
2022/09/24 09:02:50;;;;;;;1.25;1.15;;;;;;;22.41;27.14;96847.19;5094120;28;20048;-66
2022/09/24 09:05:26;;;;;;;0.90;0.90;;;;;;;22.44;29.58;96846.94;5093948;28;20052;-66
2022/09/24 09:08:02;;;;;;;1.35;1.25;;;;;;;22.54;28.15;96849.69;5093940;28;20048;-66
2022/09/24 09:10:34;;;;;;;1.30;1.15;;;;;;;22.56;28.51;96853.94;5093876;28;20090;-66
2022/09/24 09:13:09;;;;;;;1.42;1.30;;;;;;;22.50;28.23;96853.59;5093933;28;20055;-66
2022/09/24 09:15:43;;;;;;;1.00;1.00;;;;;;;22.45;26.96;96851.28;5093850;28;20125;-66
2022/09/24 09:18:16;;;;;;;1.50;1.40;;;;;;;22.33;26.26;96848.66;5093652;28;20127;-66
2022/09/24 09:20:45;;;;;;;0.82;0.82;;;;;;;22.40;26.77;96848.19;5093950;28;20495;-66
2022/09/24 09:23:17;;;;;;;1.20;1.10;;;;;;;22.28;27.91;96839.38;5093791;28;20071;-66
2022/09/24 09:25:50;;;;;;;1.40;1.30;;;;;;;22.37;28.69;96840.44;5093893;28;20097;-66
2022/09/24 09:28:17;;;;;;;1.52;1.10;;;;;;;22.02;27.10;96845.81;5093656;28;20047;-66
2022/09/24 09:30:57;;;;;;;1.20;1.10;;;;;;;21.87;26.67;96845.22;5093507;28;20497;-66
2022/09/24 09:33:38;;;;;;;1.80;1.42;;;;;;;21.90;29.07;96838.81;5093774;28;20080;-66
2022/09/24 09:36:28;;;;;;;2.88;2.20;;;;;;;22.08;27.63;96834.69;5093458;28;20044;-66
2022/09/24 09:39:02;;;;;;;1.95;1.75;;;;;;;22.13;28.91;96836.13;5093523;28;20074;-66
2022/09/24 09:41:37;;;;;;;6.60;2.67;;;;;;;22.25;27.94;96840.47;5093455;28;20138;-66
2022/09/24 09:44:14;;;;;;;1.95;1.30;;;;;;;22.41;28.88;96841.88;5093205;28;20059;-66
2022/09/24 09:46:51;;;;;;;1.90;1.20;;;;;;;22.29;26.63;96836.56;5093334;28;20101;-66
2022/09/24 09:49:19;;;;;;;2.47;1.63;;;;;;;21.77;27.15;96828.31;5093267;28;20536;-66
2022/09/24 09:51:50;;;;;;;2.22;1.27;;;;;;;21.57;29.37;96831.53;5093288;28;20471;-66
2022/09/24 09:54:17;;;;;;;1.38;1.17;;;;;;;21.56;29.45;96831.66;5093327;28;20105;-66
2022/09/24 09:56:50;;;;;;;1.48;1.30;;;;;;;21.70;29.20;96835.88;5093130;28;20071;-66
2022/09/24 09:59:20;;;;;;;1.67;1.42;;;;;;;21.74;30.06;96824.03;5093570;28;20112;-66
2022/09/24 10:01:55;;;;;;;4.05;1.40;;;;;;;21.78;29.94;96814.00;5093224;28;20527;-66
2022/09/24 10:04:34;;;;;;;1.40;1.10;;;;;;;21.78;29.40;96820.19;5093085;28;20052;-66
2022/09/24 10:07:07;;;;;;;3.20;1.65;;;;;;;21.67;29.56;96812.19;5093352;28;20052;-66
2022/09/24 10:09:35;;;;;;;1.75;1.38;;;;;;;21.57;30.07;96823.56;5093001;28;20054;-66
2022/09/24 10:12:20;;;;;;;1.40;1.05;;;;;;;21.53;31.03;96819.44;5092969;28;20130;-66
2022/09/24 10:14:58;;;;;;;2.00;1.38;;;;;;;21.41;30.70;96823.91;5092999;28;20052;-66
2022/09/24 10:17:30;;;;;;;2.33;1.27;;;;;;;21.43;29.88;96824.63;5093179;28;20139;-66
2022/09/24 10:20:00;;;;;;;1.85;1.17;;;;;;;21.50;30.15;96816.16;5093411;28;20498;-66
2022/09/24 10:22:28;;;;;;;1.55;1.45;;;;;;;21.45;28.58;96824.50;5093067;28;20044;-66
2022/09/24 10:24:59;;;;;;;1.50;1.40;;;;;;;21.29;30.86;96816.88;5093154;28;20074;-66
2022/09/24 10:27:33;;;;;;;3.08;1.33;;;;;;;21.36;30.81;96815.44;5093104;28;20105;-66
2022/09/24 10:32:57;;;;;;;1.38;1.10;;;;;;;21.07;28.28;96798.09;5093304;28;20062;-66
2022/09/24 10:35:28;;;;;;;1.17;1.08;;;;;;;21.13;29.47;96803.94;5092817;28;20497;-66
2022/09/24 10:37:57;;;;;;;2.15;1.52;;;;;;;21.14;30.92;96803.81;5092954;28;20425;-66
2022/09/24 10:40:28;;;;;;;1.70;1.60;;;;;;;21.30;30.87;96806.13;5092807;28;20573;-66
2022/09/24 10:42:57;;;;;;;1.40;1.30;;;;;;;21.33;30.07;96797.91;5092854;28;20048;-66
2022/09/24 10:45:43;;;;;;;2.78;1.52;;;;;;;21.52;29.71;96787.63;5092860;28;20048;-66
2022/09/24 10:48:17;;;;;;;4.43;1.80;;;;;;;21.67;29.94;96791.72;5082372;28;20044;-66
2022/09/24 10:50:53;;;;;;;1.73;1.33;;;;;;;21.50;29.10;96795.75;5092909;28;20087;-66
2022/09/24 10:53:33;;;;;;;2.67;1.30;;;;;;;21.37;29.59;96798.50;5092691;28;20102;-66
2022/09/24 10:56:07;;;;;;;3.27;1.20;;;;;;;21.39;29.17;96793.06;5092727;28;20048;-66
2022/09/24 10:58:53;;;;;;;1.88;1.30;;;;;;;21.24;29.61;96785.31;5092722;28;20132;-66
2022/09/24 11:01:27;;;;;;;4.53;1.27;;;;;;;20.81;27.93;96776.16;5092798;28;20048;-66
2022/09/24 11:04:19;;;;;;;1.20;1.10;;;;;;;20.31;30.65;96777.16;5092599;28;20048;-66
2022/09/24 11:07:06;;;;;;;8.70;1.48;;;;;;;20.34;30.44;96776.94;5094919;28;20079;-66
2022/09/24 11:09:42;;;;;;;1.15;1.05;;;;;;;20.42;30.45;96781.69;5094880;28;20363;-66
2022/09/24 11:12:16;;;;;;;1.92;1.70;;;;;;;20.42;30.98;96769.28;5096133;28;20047;-66
2022/09/24 11:14:56;;;;;;;3.40;1.35;;;;;;;20.67;31.17;96770.06;5095923;28;20393;-66
2022/09/24 11:17:33;;;;;;;3.65;1.20;;;;;;;20.46;30.99;96772.53;5096110;28;20044;-66
2022/09/24 11:20:15;;;;;;;1.83;1.30;;;;;;;20.38;30.75;96764.28;5096051;28;20134;-66
2022/09/24 11:22:57;;;;;;;1.30;1.20;;;;;;;20.53;30.96;96771.09;5095857;28;20481;-66
2022/09/24 11:25:37;;;;;;;5.20;1.30;;;;;;;20.39;28.85;96772.16;5095910;28;20052;-66
2022/09/24 11:28:19;;;;;;;1.40;1.30;;;;;;;20.40;31.02;96773.84;5095905;28;20043;-66
2022/09/24 11:30:58;;;;;;;1.45;1.35;;;;;;;20.34;28.58;96763.66;5095708;28;20044;-66
2022/09/24 11:33:44;;;;;;;1.45;1.20;;;;;;;20.22;30.09;96760.13;5095603;28;20097;-66
2022/09/24 11:36:30;;;;;;;1.38;1.10;;;;;;;20.47;31.85;96760.09;5095681;28;20048;-66
2022/09/24 11:39:20;;;;;;;1.25;1.10;;;;;;;20.76;30.68;96747.25;5095717;28;20048;-66
2022/09/24 11:41:57;;;;;;;1.25;1.10;;;;;;;20.87;29.15;96741.13;5095416;28;20059;-66
2022/09/24 11:44:53;;;;;;;1.85;1.17;;;;;;;20.94;29.09;96746.84;5095479;28;20505;-66
2022/09/24 11:47:31;;;;;;;1.95;1.30;;;;;;;21.06;30.04;96753.88;5062308;28;20066;-66
2022/09/24 11:50:14;;;;;;;1.67;1.33;;;;;;;21.13;30.61;96754.22;5095430;28;20405;-66
2022/09/24 11:52:48;;;;;;;2.97;1.40;;;;;;;21.28;29.85;96756.69;5094109;28;20048;-66
2022/09/24 11:55:20;;;;;;;1.75;1.10;;;;;;;21.31;29.21;96757.25;5095444;28;20391;-66
2022/09/24 11:57:52;;;;;;;1.80;1.35;;;;;;;21.39;28.65;96748.69;5095137;28;20044;-66
2022/09/24 12:00:21;;;;;;;1.38;1.27;;;;;;;21.42;28.97;96748.44;5095093;28;20045;-66
2022/09/24 12:02:52;;;;;;;1.30;1.20;;;;;;;21.34;27.15;96750.84;5095129;28;20067;-66
2022/09/24 12:05:28;;;;;;;2.83;1.20;;;;;;;20.93;28.07;96756.66;5095412;28;20083;-66